sensor_id;sensor_type;location;lat;lon;timestamp;pressure;altitude;pressure_sealevel;temperature;humidity
62548;BME280;48602;45.192;5.722;2023-07-20T00:00:33;99064.59;;;25.27;40.95
62548;BME280;48602;45.192;5.722;2023-07-20T00:03:13;99059.66;;;25.23;41.32
62548;BME280;48602;45.192;5.722;2023-07-20T00:05:42;99060.13;;;25.18;41.21
62548;BME280;48602;45.192;5.722;2023-07-20T00:08:08;99062.97;;;25.17;41.54
62548;BME280;48602;45.192;5.722;2023-07-20T00:10:33;99059.56;;;25.15;41.67
62548;BME280;48602;45.192;5.722;2023-07-20T00:12:59;99059.06;;;25.11;41.88
62548;BME280;48602;45.192;5.722;2023-07-20T00:15:24;99060.75;;;25.12;41.81
62548;BME280;48602;45.192;5.722;2023-07-20T00:17:49;99060.75;;;25.12;41.91
62548;BME280;48602;45.192;5.722;2023-07-20T00:20:15;99057.66;;;25.07;41.89
62548;BME280;48602;45.192;5.722;2023-07-20T00:22:40;99058.66;;;25.06;42.13
62548;BME280;48602;45.192;5.722;2023-07-20T00:25:05;99053.25;;;25.06;41.94
62548;BME280;48602;45.192;5.722;2023-07-20T00:27:31;99053.41;;;25.04;41.95
62548;BME280;48602;45.192;5.722;2023-07-20T00:29:57;99058.13;;;25.02;42.21
62548;BME280;48602;45.192;5.722;2023-07-20T00:32:22;99057.41;;;25.00;42.21
62548;BME280;48602;45.192;5.722;2023-07-20T00:34:47;99047.97;;;24.96;42.27
62548;BME280;48602;45.192;5.722;2023-07-20T00:37:13;99047.13;;;24.96;42.30
62548;BME280;48602;45.192;5.722;2023-07-20T00:39:38;99058.91;;;24.95;42.31
62548;BME280;48602;45.192;5.722;2023-07-20T00:42:04;99060.19;;;24.91;42.59
62548;BME280;48602;45.192;5.722;2023-07-20T00:44:29;99064.88;;;24.89;42.71
62548;BME280;48602;45.192;5.722;2023-07-20T00:46:55;99065.03;;;24.87;42.42
62548;BME280;48602;45.192;5.722;2023-07-20T00:49:20;99051.84;;;24.84;42.45
62548;BME280;48602;45.192;5.722;2023-07-20T00:51:48;99050.13;;;24.83;42.83
62548;BME280;48602;45.192;5.722;2023-07-20T00:54:14;99061.06;;;24.82;42.85
62548;BME280;48602;45.192;5.722;2023-07-20T00:56:40;99055.84;;;24.80;42.55
62548;BME280;48602;45.192;5.722;2023-07-20T00:59:05;99053.47;;;24.77;42.87
62548;BME280;48602;45.192;5.722;2023-07-20T01:01:31;99042.28;;;24.72;43.09
62548;BME280;48602;45.192;5.722;2023-07-20T01:03:56;99042.72;;;24.67;42.77
62548;BME280;48602;45.192;5.722;2023-07-20T01:06:33;99042.19;;;24.64;43.09
62548;BME280;48602;45.192;5.722;2023-07-20T01:09:14;99041.34;;;24.63;43.19
62548;BME280;48602;45.192;5.722;2023-07-20T01:14:27;99038.41;;;24.57;43.35
62548;BME280;48602;45.192;5.722;2023-07-20T01:16:53;99039.72;;;24.53;43.75
62548;BME280;48602;45.192;5.722;2023-07-20T01:19:18;99034.78;;;24.48;43.53
62548;BME280;48602;45.192;5.722;2023-07-20T01:21:50;99033.41;;;24.44;43.95
62548;BME280;48602;45.192;5.722;2023-07-20T01:24:31;99035.41;;;24.42;44.15
62548;BME280;48602;45.192;5.722;2023-07-20T01:30:14;99029.91;;;24.34;44.30
62548;BME280;48602;45.192;5.722;2023-07-20T01:32:42;99029.34;;;24.30;44.19
62548;BME280;48602;45.192;5.722;2023-07-20T01:35:11;99033.38;;;24.26;44.72
62548;BME280;48602;45.192;5.722;2023-07-20T01:37:41;99023.00;;;24.22;44.62
62548;BME280;48602;45.192;5.722;2023-07-20T01:40:09;99015.34;;;24.17;44.58
62548;BME280;48602;45.192;5.722;2023-07-20T01:42:35;99017.50;;;24.14;44.38
62548;BME280;48602;45.192;5.722;2023-07-20T01:45:00;99022.03;;;24.13;45.05
62548;BME280;48602;45.192;5.722;2023-07-20T01:47:25;99025.91;;;24.11;44.72
62548;BME280;48602;45.192;5.722;2023-07-20T01:49:51;99031.44;;;24.09;44.83
62548;BME280;48602;45.192;5.722;2023-07-20T01:52:16;99012.72;;;24.08;44.66
62548;BME280;48602;45.192;5.722;2023-07-20T01:54:42;99017.25;;;24.07;44.58
62548;BME280;48602;45.192;5.722;2023-07-20T01:57:07;99019.41;;;24.04;45.15
62548;BME280;48602;45.192;5.722;2023-07-20T01:59:32;99017.84;;;24.01;45.27
62548;BME280;48602;45.192;5.722;2023-07-20T02:01:58;99018.00;;;23.99;45.06
62548;BME280;48602;45.192;5.722;2023-07-20T02:04:23;99027.22;;;23.97;44.81
62548;BME280;48602;45.192;5.722;2023-07-20T02:06:48;99017.28;;;23.97;45.02
62548;BME280;48602;45.192;5.722;2023-07-20T02:09:14;99020.16;;;23.96;44.76
62548;BME280;48602;45.192;5.722;2023-07-20T02:11:39;99016.78;;;23.94;44.81
62548;BME280;48602;45.192;5.722;2023-07-20T02:14:05;99012.53;;;23.91;45.29
62548;BME280;48602;45.192;5.722;2023-07-20T02:16:30;99013.66;;;23.89;44.80
62548;BME280;48602;45.192;5.722;2023-07-20T02:18:55;99018.50;;;23.85;44.98
62548;BME280;48602;45.192;5.722;2023-07-20T02:21:22;99023.88;;;23.85;45.33
62548;BME280;48602;45.192;5.722;2023-07-20T02:23:48;99028.56;;;23.83;45.69
62548;BME280;48602;45.192;5.722;2023-07-20T02:26:13;99022.47;;;23.81;45.84
62548;BME280;48602;45.192;5.722;2023-07-20T02:28:38;99020.09;;;23.78;45.43
62548;BME280;48602;45.192;5.722;2023-07-20T02:31:04;99024.63;;;23.78;45.19
62548;BME280;48602;45.192;5.722;2023-07-20T02:33:29;99030.00;;;23.78;45.36
62548;BME280;48602;45.192;5.722;2023-07-20T02:35:54;99024.78;;;23.76;45.79
62548;BME280;48602;45.192;5.722;2023-07-20T02:38:20;99020.66;;;23.72;45.32
62548;BME280;48602;45.192;5.722;2023-07-20T02:40:45;99021.81;;;23.70;46.15
62548;BME280;48602;45.192;5.722;2023-07-20T02:43:11;99025.50;;;23.69;46.45
62548;BME280;48602;45.192;5.722;2023-07-20T02:45:40;99028.31;;;23.67;45.88
62548;BME280;48602;45.192;5.722;2023-07-20T02:48:05;99028.63;;;23.64;46.38
62548;BME280;48602;45.192;5.722;2023-07-20T02:50:33;99028.09;;;23.60;45.92
62548;BME280;48602;45.192;5.722;2023-07-20T02:52:58;99025.13;;;23.54;45.81
62548;BME280;48602;45.192;5.722;2023-07-20T02:55:24;99029.19;;;23.48;46.57
62548;BME280;48602;45.192;5.722;2023-07-20T02:57:49;99027.53;;;23.38;46.88
62548;BME280;48602;45.192;5.722;2023-07-20T03:00:15;99032.63;;;23.31;47.01
62548;BME280;48602;45.192;5.722;2023-07-20T03:02:41;99029.53;;;23.26;47.60
62548;BME280;48602;45.192;5.722;2023-07-20T03:05:07;99038.03;;;23.21;47.24
62548;BME280;48602;45.192;5.722;2023-07-20T03:07:32;99036.63;;;23.17;47.25
62548;BME280;48602;45.192;5.722;2023-07-20T03:09:58;99032.50;;;23.13;46.98
62548;BME280;48602;45.192;5.722;2023-07-20T03:12:23;99039.91;;;23.11;46.72
62548;BME280;48602;45.192;5.722;2023-07-20T03:14:49;99041.88;;;23.09;46.91
62548;BME280;48602;45.192;5.722;2023-07-20T03:17:15;99044.69;;;23.08;47.23
62548;BME280;48602;45.192;5.722;2023-07-20T03:19:40;99041.16;;;23.07;47.07
62548;BME280;48602;45.192;5.722;2023-07-20T03:22:06;99043.84;;;23.07;46.70
62548;BME280;48602;45.192;5.722;2023-07-20T03:24:32;99042.16;;;23.06;47.64
62548;BME280;48602;45.192;5.722;2023-07-20T03:26:58;99046.97;;;23.03;47.60
62548;BME280;48602;45.192;5.722;2023-07-20T03:29:23;99042.44;;;23.03;47.54
62548;BME280;48602;45.192;5.722;2023-07-20T03:31:49;99046.09;;;23.02;48.05
62548;BME280;48602;45.192;5.722;2023-07-20T03:34:14;99049.94;;;23.00;47.17
62548;BME280;48602;45.192;5.722;2023-07-20T03:36:39;99052.03;;;22.96;48.04
62548;BME280;48602;45.192;5.722;2023-07-20T03:39:05;99055.03;;;22.93;47.70
62548;BME280;48602;45.192;5.722;2023-07-20T03:41:30;99060.81;;;22.88;48.31
62548;BME280;48602;45.192;5.722;2023-07-20T03:43:56;99058.28;;;22.87;48.57
62548;BME280;48602;45.192;5.722;2023-07-20T03:46:21;99059.69;;;22.81;48.43
62548;BME280;48602;45.192;5.722;2023-07-20T03:48:47;99056.56;;;22.76;49.00
62548;BME280;48602;45.192;5.722;2023-07-20T03:51:12;99054.00;;;22.75;48.92
62548;BME280;48602;45.192;5.722;2023-07-20T03:53:38;99055.25;;;22.71;49.14
62548;BME280;48602;45.192;5.722;2023-07-20T03:56:04;99054.69;;;22.67;48.95
62548;BME280;48602;45.192;5.722;2023-07-20T03:58:29;99047.88;;;22.63;48.61
62548;BME280;48602;45.192;5.722;2023-07-20T04:00:57;99057.38;;;22.57;49.23
62548;BME280;48602;45.192;5.722;2023-07-20T04:03:22;99061.31;;;22.53;49.56
62548;BME280;48602;45.192;5.722;2023-07-20T04:05:49;99063.69;;;22.47;49.78
62548;BME280;48602;45.192;5.722;2023-07-20T04:08:15;99063.53;;;22.39;50.16
62548;BME280;48602;45.192;5.722;2023-07-20T04:10:44;99056.88;;;22.33;50.41
62548;BME280;48602;45.192;5.722;2023-07-20T04:13:09;99056.16;;;22.31;50.52
62548;BME280;48602;45.192;5.722;2023-07-20T04:15:35;99060.81;;;22.29;50.17
62548;BME280;48602;45.192;5.722;2023-07-20T04:18:00;99057.88;;;22.32;50.07
62548;BME280;48602;45.192;5.722;2023-07-20T04:20:26;99059.44;;;22.35;50.05
62548;BME280;48602;45.192;5.722;2023-07-20T04:22:51;99061.84;;;22.38;49.81
62548;BME280;48602;45.192;5.722;2023-07-20T04:25:19;99065.53;;;22.37;50.10
62548;BME280;48602;45.192;5.722;2023-07-20T04:27:45;99054.47;;;22.30;50.54
62548;BME280;48602;45.192;5.722;2023-07-20T04:30:11;99064.53;;;22.28;50.76
62548;BME280;48602;45.192;5.722;2023-07-20T04:32:38;99062.09;;;22.25;50.87
62548;BME280;48602;45.192;5.722;2023-07-20T04:35:09;99057.13;;;22.20;50.67
62548;BME280;48602;45.192;5.722;2023-07-20T04:37:34;99056.53;;;22.17;50.81
62548;BME280;48602;45.192;5.722;2023-07-20T04:40:00;99064.59;;;22.17;51.13
62548;BME280;48602;45.192;5.722;2023-07-20T04:42:26;99058.38;;;22.16;51.00
62548;BME280;48602;45.192;5.722;2023-07-20T04:44:51;99060.34;;;22.14;51.13
62548;BME280;48602;45.192;5.722;2023-07-20T04:47:16;99066.88;;;22.12;51.49
62548;BME280;48602;45.192;5.722;2023-07-20T04:49:42;99058.22;;;22.08;51.11
62548;BME280;48602;45.192;5.722;2023-07-20T04:52:07;99065.69;;;22.05;51.26
62548;BME280;48602;45.192;5.722;2023-07-20T04:54:33;99068.16;;;21.97;51.30
62548;BME280;48602;45.192;5.722;2023-07-20T04:56:58;99071.25;;;21.92;52.24
62548;BME280;48602;45.192;5.722;2023-07-20T04:59:23;99068.25;;;21.85;52.22
62548;BME280;48602;45.192;5.722;2023-07-20T05:01:49;99072.91;;;21.83;52.44
62548;BME280;48602;45.192;5.722;2023-07-20T05:04:14;99066.56;;;21.84;52.49
62548;BME280;48602;45.192;5.722;2023-07-20T05:06:40;99066.69;;;21.83;52.17
62548;BME280;48602;45.192;5.722;2023-07-20T05:09:05;99075.72;;;21.82;52.69
62548;BME280;48602;45.192;5.722;2023-07-20T05:11:32;99068.78;;;21.79;52.71
62548;BME280;48602;45.192;5.722;2023-07-20T05:13:58;99069.19;;;21.75;52.55
62548;BME280;48602;45.192;5.722;2023-07-20T05:16:23;99062.25;;;21.72;52.92
62548;BME280;48602;45.192;5.722;2023-07-20T05:18:48;99070.44;;;21.71;52.56
62548;BME280;48602;45.192;5.722;2023-07-20T05:21:14;99062.66;;;21.68;53.04
62548;BME280;48602;45.192;5.722;2023-07-20T05:23:39;99063.63;;;21.67;52.84
62548;BME280;48602;45.192;5.722;2023-07-20T05:26:04;99067.44;;;21.64;52.83
62548;BME280;48602;45.192;5.722;2023-07-20T05:28:31;99074.63;;;21.64;52.76
62548;BME280;48602;45.192;5.722;2023-07-20T05:30:56;99072.22;;;21.61;52.59
62548;BME280;48602;45.192;5.722;2023-07-20T05:33:22;99075.75;;;21.61;52.91
62548;BME280;48602;45.192;5.722;2023-07-20T05:35:47;99075.75;;;21.61;52.90
62548;BME280;48602;45.192;5.722;2023-07-20T05:38:13;99077.72;;;21.59;53.09
62548;BME280;48602;45.192;5.722;2023-07-20T05:40:41;99083.22;;;21.57;53.22
62548;BME280;48602;45.192;5.722;2023-07-20T05:43:10;99082.38;;;21.57;53.59
62548;BME280;48602;45.192;5.722;2023-07-20T05:45:35;99078.97;;;21.55;53.02
62548;BME280;48602;45.192;5.722;2023-07-20T05:48:01;99081.66;;;21.55;53.50
62548;BME280;48602;45.192;5.722;2023-07-20T05:50:26;99089.69;;;21.55;54.02
62548;BME280;48602;45.192;5.722;2023-07-20T05:52:52;99088.47;;;21.59;53.61
62548;BME280;48602;45.192;5.722;2023-07-20T05:55:18;99086.63;;;21.59;54.00
62548;BME280;48602;45.192;5.722;2023-07-20T05:57:44;99081.38;;;21.58;53.50
62548;BME280;48602;45.192;5.722;2023-07-20T06:00:10;99076.03;;;21.58;53.70
62548;BME280;48602;45.192;5.722;2023-07-20T06:02:35;99071.25;;;21.62;53.16
62548;BME280;48602;45.192;5.722;2023-07-20T06:05:01;99071.81;;;21.65;53.53
62548;BME280;48602;45.192;5.722;2023-07-20T06:07:26;99075.94;;;21.69;53.56
62548;BME280;48602;45.192;5.722;2023-07-20T06:09:52;99076.53;;;21.73;53.20
62548;BME280;48602;45.192;5.722;2023-07-20T06:12:17;99073.84;;;21.73;53.52
62548;BME280;48602;45.192;5.722;2023-07-20T06:14:43;99071.28;;;21.71;53.93
62548;BME280;48602;45.192;5.722;2023-07-20T06:17:08;99073.00;;;21.72;54.09
62548;BME280;48602;45.192;5.722;2023-07-20T06:19:33;99067.63;;;21.72;54.00
62548;BME280;48602;45.192;5.722;2023-07-20T06:21:59;99064.94;;;21.72;53.51
62548;BME280;48602;45.192;5.722;2023-07-20T06:24:24;99068.34;;;21.74;54.01
62548;BME280;48602;45.192;5.722;2023-07-20T06:26:50;99068.34;;;21.74;53.73
62548;BME280;48602;45.192;5.722;2023-07-20T06:29:15;99069.19;;;21.75;53.88
62548;BME280;48602;45.192;5.722;2023-07-20T06:31:40;99065.41;;;21.77;53.55
62548;BME280;48602;45.192;5.722;2023-07-20T06:34:06;99065.09;;;21.80;53.58
62548;BME280;48602;45.192;5.722;2023-07-20T06:36:31;99062.16;;;21.83;52.88
62548;BME280;48602;45.192;5.722;2023-07-20T06:38:57;99061.78;;;21.88;53.36
62548;BME280;48602;45.192;5.722;2023-07-20T06:41:22;99064.78;;;21.94;53.08
62548;BME280;48602;45.192;5.722;2023-07-20T06:43:48;99063.63;;;21.97;52.98
62548;BME280;48602;45.192;5.722;2023-07-20T06:46:13;99063.41;;;22.00;52.59
62548;BME280;48602;45.192;5.722;2023-07-20T06:48:39;99057.78;;;22.03;52.94
62548;BME280;48602;45.192;5.722;2023-07-20T06:51:04;99061.19;;;22.05;52.54
62548;BME280;48602;45.192;5.722;2023-07-20T06:53:30;99057.50;;;22.06;52.46
62548;BME280;48602;45.192;5.722;2023-07-20T06:55:56;99054.81;;;22.06;52.80
62548;BME280;48602;45.192;5.722;2023-07-20T06:58:24;99055.81;;;22.05;52.61
62548;BME280;48602;45.192;5.722;2023-07-20T07:00:50;99052.00;;;22.08;52.70
62548;BME280;48602;45.192;5.722;2023-07-20T07:03:15;99053.28;;;22.13;52.38
62548;BME280;48602;45.192;5.722;2023-07-20T07:05:41;99051.19;;;22.17;52.54
62548;BME280;48602;45.192;5.722;2023-07-20T07:08:06;99055.69;;;22.16;52.33
62548;BME280;48602;45.192;5.722;2023-07-20T07:10:34;99050.06;;;22.19;52.03
62548;BME280;48602;45.192;5.722;2023-07-20T07:12:59;99048.66;;;22.25;52.23
62548;BME280;48602;45.192;5.722;2023-07-20T07:15:25;99048.94;;;22.32;52.42
62548;BME280;48602;45.192;5.722;2023-07-20T07:17:51;99039.38;;;22.39;52.25
62548;BME280;48602;45.192;5.722;2023-07-20T07:20:17;99033.47;;;22.45;52.22
62548;BME280;48602;45.192;5.722;2023-07-20T07:22:42;99042.66;;;22.52;51.86
62548;BME280;48602;45.192;5.722;2023-07-20T07:25:09;99034.88;;;22.58;51.57
62548;BME280;48602;45.192;5.722;2023-07-20T07:27:35;99038.56;;;22.67;51.65
62548;BME280;48602;45.192;5.722;2023-07-20T07:30:01;99040.44;;;22.76;52.00
62548;BME280;48602;45.192;5.722;2023-07-20T07:32:26;99042.44;;;22.84;51.41
62548;BME280;48602;45.192;5.722;2023-07-20T07:34:52;99031.97;;;22.90;51.18
62548;BME280;48602;45.192;5.722;2023-07-20T07:37:17;99031.25;;;22.98;51.38
62548;BME280;48602;45.192;5.722;2023-07-20T07:39:45;99029.13;;;23.02;51.06
62548;BME280;48602;45.192;5.722;2023-07-20T07:42:11;99027.00;;;23.05;50.64
62548;BME280;48602;45.192;5.722;2023-07-20T07:44:36;99019.38;;;23.10;50.48
62548;BME280;48602;45.192;5.722;2023-07-20T07:47:02;99020.47;;;23.17;50.39
62548;BME280;48602;45.192;5.722;2023-07-20T07:49:27;99011.00;;;23.23;50.51
62548;BME280;48602;45.192;5.722;2023-07-20T07:51:53;99014.78;;;23.30;50.67
62548;BME280;48602;45.192;5.722;2023-07-20T07:54:18;99020.31;;;23.38;50.20
62548;BME280;48602;45.192;5.722;2023-07-20T07:56:43;99005.44;;;23.44;50.06
62548;BME280;48602;45.192;5.722;2023-07-20T07:59:09;99007.84;;;23.56;49.71
62548;BME280;48602;45.192;5.722;2023-07-20T08:01:35;99000.72;;;23.65;49.91
62548;BME280;48602;45.192;5.722;2023-07-20T08:04:00;99006.06;;;23.75;49.94
62548;BME280;48602;45.192;5.722;2023-07-20T08:06:26;99002.34;;;23.85;49.25
62548;BME280;48602;45.192;5.722;2023-07-20T08:08:51;99001.75;;;23.91;48.94
62548;BME280;48602;45.192;5.722;2023-07-20T08:11:16;99005.00;;;23.95;49.25
62548;BME280;48602;45.192;5.722;2023-07-20T08:13:43;99005.53;;;23.98;49.35
62548;BME280;48602;45.192;5.722;2023-07-20T08:16:08;98998.16;;;24.00;49.00
62548;BME280;48602;45.192;5.722;2023-07-20T08:18:34;99005.94;;;24.04;49.07
62548;BME280;48602;45.192;5.722;2023-07-20T08:20:59;99008.34;;;24.07;48.62
62548;BME280;48602;45.192;5.722;2023-07-20T08:23:25;98990.31;;;24.07;47.99
62548;BME280;48602;45.192;5.722;2023-07-20T08:25:52;98990.31;;;24.07;48.74
62548;BME280;48602;45.192;5.722;2023-07-20T08:28:18;99000.66;;;24.12;49.29
62548;BME280;48602;45.192;5.722;2023-07-20T08:30:45;99008.41;;;24.15;49.13
62548;BME280;48602;45.192;5.722;2023-07-20T08:33:13;98987.41;;;24.18;48.46
62548;BME280;48602;45.192;5.722;2023-07-20T08:35:38;98991.66;;;24.21;48.43
62548;BME280;48602;45.192;5.722;2023-07-20T08:38:04;98983.16;;;24.25;48.16
62548;BME280;48602;45.192;5.722;2023-07-20T08:40:31;98978.69;;;24.34;48.60
62548;BME280;48602;45.192;5.722;2023-07-20T08:42:58;98976.97;;;24.43;48.42
62548;BME280;48602;45.192;5.722;2023-07-20T08:45:26;98975.47;;;24.48;48.07
62548;BME280;48602;45.192;5.722;2023-07-20T08:47:52;98971.34;;;24.54;47.69
62548;BME280;48602;45.192;5.722;2023-07-20T08:50:19;98968.03;;;24.60;47.77
62548;BME280;48602;45.192;5.722;2023-07-20T08:52:46;98976.63;;;24.63;47.52
62548;BME280;48602;45.192;5.722;2023-07-20T08:55:13;98962.69;;;24.68;47.48
62548;BME280;48602;45.192;5.722;2023-07-20T08:57:39;98964.50;;;24.77;47.51
62548;BME280;48602;45.192;5.722;2023-07-20T09:00:07;98950.34;;;24.83;47.50
62548;BME280;48602;45.192;5.722;2023-07-20T09:02:39;98949.44;;;24.92;47.30
62548;BME280;48602;45.192;5.722;2023-07-20T09:05:07;98950.53;;;24.99;46.21
62548;BME280;48602;45.192;5.722;2023-07-20T09:07:33;98945.13;;;24.99;46.70
62548;BME280;48602;45.192;5.722;2023-07-20T09:10:00;98950.22;;;25.02;46.69
62548;BME280;48602;45.192;5.722;2023-07-20T09:12:31;98940.97;;;25.05;46.72
62548;BME280;48602;45.192;5.722;2023-07-20T09:14:57;98940.81;;;25.07;46.85
62548;BME280;48602;45.192;5.722;2023-07-20T09:17:25;98950.13;;;25.12;46.93
62548;BME280;48602;45.192;5.722;2023-07-20T09:19:51;98939.00;;;25.15;46.99
62548;BME280;48602;45.192;5.722;2023-07-20T09:22:16;98943.09;;;25.19;46.51
62548;BME280;48602;45.192;5.722;2023-07-20T09:24:43;98935.53;;;25.23;46.68
62548;BME280;48602;45.192;5.722;2023-07-20T09:27:08;98937.06;;;25.25;46.67
62548;BME280;48602;45.192;5.722;2023-07-20T09:29:35;98934.06;;;25.28;46.68
62548;BME280;48602;45.192;5.722;2023-07-20T09:32:12;98931.53;;;25.35;46.13
62548;BME280;48602;45.192;5.722;2023-07-20T09:34:37;98924.50;;;25.42;46.00
62548;BME280;48602;45.192;5.722;2023-07-20T09:37:03;98923.84;;;25.48;46.09
62548;BME280;48602;45.192;5.722;2023-07-20T09:39:29;98921.38;;;25.55;46.35
62548;BME280;48602;45.192;5.722;2023-07-20T09:41:54;98925.81;;;25.64;46.38
62548;BME280;48602;45.192;5.722;2023-07-20T09:44:27;98918.09;;;25.69;45.71
62548;BME280;48602;45.192;5.722;2023-07-20T09:46:53;98915.75;;;25.74;45.00
62548;BME280;48602;45.192;5.722;2023-07-20T09:49:19;98914.59;;;25.77;45.43
62548;BME280;48602;45.192;5.722;2023-07-20T09:51:46;98918.28;;;25.76;45.83
62548;BME280;48602;45.192;5.722;2023-07-20T09:54:13;98913.56;;;25.78;45.33
62548;BME280;48602;45.192;5.722;2023-07-20T09:56:39;98909.72;;;25.80;45.61
62548;BME280;48602;45.192;5.722;2023-07-20T09:59:05;98906.19;;;25.88;45.49
62548;BME280;48602;45.192;5.722;2023-07-20T10:01:32;98907.38;;;25.93;45.77
62548;BME280;48602;45.192;5.722;2023-07-20T10:03:59;98891.34;;;26.00;45.62
62548;BME280;48602;45.192;5.722;2023-07-20T10:06:28;98888.00;;;26.06;45.78
62548;BME280;48602;45.192;5.722;2023-07-20T10:09:00;98895.09;;;26.15;45.68
62548;BME280;48602;45.192;5.722;2023-07-20T10:11:29;98887.50;;;26.19;44.43
62548;BME280;48602;45.192;5.722;2023-07-20T10:13:58;98886.81;;;26.17;44.88
62548;BME280;48602;45.192;5.722;2023-07-20T10:16:43;98881.25;;;26.18;44.67
62548;BME280;48602;45.192;5.722;2023-07-20T10:21:47;98873.72;;;26.30;44.44
62548;BME280;48602;45.192;5.722;2023-07-20T10:24:13;98866.25;;;26.32;44.72
62548;BME280;48602;45.192;5.722;2023-07-20T10:26:39;98864.25;;;26.34;44.55
62548;BME280;48602;45.192;5.722;2023-07-20T10:29:05;98856.16;;;26.42;44.32
62548;BME280;48602;45.192;5.722;2023-07-20T10:31:32;98857.50;;;26.46;44.05
62548;BME280;48602;45.192;5.722;2023-07-20T10:33:58;98860.69;;;26.50;44.10
62548;BME280;48602;45.192;5.722;2023-07-20T10:36:27;98851.25;;;26.54;44.29
62548;BME280;48602;45.192;5.722;2023-07-20T10:38:54;98860.03;;;26.64;43.73
62548;BME280;48602;45.192;5.722;2023-07-20T10:41:21;98860.53;;;26.67;43.83
62548;BME280;48602;45.192;5.722;2023-07-20T10:43:50;98856.50;;;26.63;44.11
62548;BME280;48602;45.192;5.722;2023-07-20T10:49:06;98850.91;;;26.73;43.57
62548;BME280;48602;45.192;5.722;2023-07-20T10:51:46;98856.81;;;26.76;43.38
62548;BME280;48602;45.192;5.722;2023-07-20T10:56:41;98842.59;;;26.83;43.43
62548;BME280;48602;45.192;5.722;2023-07-20T10:59:20;98836.84;;;26.86;43.30
62548;BME280;48602;45.192;5.722;2023-07-20T11:02:06;98824.16;;;26.86;43.16
62548;BME280;48602;45.192;5.722;2023-07-20T11:07:04;98821.28;;;26.88;43.07
62548;BME280;48602;45.192;5.722;2023-07-20T11:09:34;98819.94;;;26.92;43.14
62548;BME280;48602;45.192;5.722;2023-07-20T11:12:15;98816.56;;;26.98;43.27
62548;BME280;48602;45.192;5.722;2023-07-20T11:17:14;98812.66;;;27.08;43.07
62548;BME280;48602;45.192;5.722;2023-07-20T11:19:41;98820.25;;;27.13;43.23
62548;BME280;48602;45.192;5.722;2023-07-20T11:22:07;98814.28;;;27.18;43.28
62548;BME280;48602;45.192;5.722;2023-07-20T11:24:33;98812.94;;;27.22;43.16
62548;BME280;48602;45.192;5.722;2023-07-20T11:26:59;98801.75;;;27.25;43.31
62548;BME280;48602;45.192;5.722;2023-07-20T11:29:26;98809.53;;;27.28;43.18
62548;BME280;48602;45.192;5.722;2023-07-20T11:31:52;98798.72;;;27.28;43.46
62548;BME280;48602;45.192;5.722;2023-07-20T11:34:19;98788.56;;;27.30;43.42
62548;BME280;48602;45.192;5.722;2023-07-20T11:36:48;98790.72;;;27.34;42.63
62548;BME280;48602;45.192;5.722;2023-07-20T11:39:16;98782.41;;;27.36;43.14
62548;BME280;48602;45.192;5.722;2023-07-20T11:41:57;98784.25;;;27.43;43.19
62548;BME280;48602;45.192;5.722;2023-07-20T11:44:24;98781.50;;;27.52;42.97
62548;BME280;48602;45.192;5.722;2023-07-20T11:49:29;98771.50;;;27.60;42.38
62548;BME280;48602;45.192;5.722;2023-07-20T11:51:55;98765.72;;;27.63;42.83
62548;BME280;48602;45.192;5.722;2023-07-20T11:54:21;98770.59;;;27.68;42.34
62548;BME280;48602;45.192;5.722;2023-07-20T11:56:47;98767.34;;;27.72;41.91
62548;BME280;48602;45.192;5.722;2023-07-20T11:59:12;98775.31;;;27.74;41.68
62548;BME280;48602;45.192;5.722;2023-07-20T12:01:37;98765.13;;;27.76;41.80
62548;BME280;48602;45.192;5.722;2023-07-20T12:04:03;98744.47;;;27.75;41.54
62548;BME280;48602;45.192;5.722;2023-07-20T12:06:29;98761.91;;;27.81;41.85
62548;BME280;48602;45.192;5.722;2023-07-20T12:08:58;98767.41;;;27.87;41.83
62548;BME280;48602;45.192;5.722;2023-07-20T12:11:37;98768.22;;;27.96;41.68
62548;BME280;48602;45.192;5.722;2023-07-20T12:14:07;98761.28;;;27.93;41.02
62548;BME280;48602;45.192;5.722;2023-07-20T12:16:34;98737.25;;;27.90;41.53
62548;BME280;48602;45.192;5.722;2023-07-20T12:21:26;98762.06;;;28.02;41.46
62548;BME280;48602;45.192;5.722;2023-07-20T12:23:51;98742.56;;;28.06;40.99
62548;BME280;48602;45.192;5.722;2023-07-20T12:26:17;98731.16;;;28.11;41.49
62548;BME280;48602;45.192;5.722;2023-07-20T12:28:42;98734.66;;;28.20;40.89
62548;BME280;48602;45.192;5.722;2023-07-20T12:31:08;98729.91;;;28.22;41.28
62548;BME280;48602;45.192;5.722;2023-07-20T12:33:35;98738.53;;;28.25;40.76
62548;BME280;48602;45.192;5.722;2023-07-20T12:36:00;98734.97;;;28.25;40.63
62548;BME280;48602;45.192;5.722;2023-07-20T12:38:26;98721.25;;;28.26;40.37
62548;BME280;48602;45.192;5.722;2023-07-20T12:40:53;98712.63;;;28.23;40.04
62548;BME280;48602;45.192;5.722;2023-07-20T12:43:20;98732.28;;;28.17;40.95
62548;BME280;48602;45.192;5.722;2023-07-20T12:45:45;98728.22;;;28.21;40.60
62548;BME280;48602;45.192;5.722;2023-07-20T12:48:11;98720.28;;;28.19;40.58
62548;BME280;48602;45.192;5.722;2023-07-20T12:50:36;98739.06;;;28.21;40.37
62548;BME280;48602;45.192;5.722;2023-07-20T12:53:01;98699.56;;;28.18;40.55
62548;BME280;48602;45.192;5.722;2023-07-20T12:55:29;98707.69;;;28.26;40.72
62548;BME280;48602;45.192;5.722;2023-07-20T12:57:55;98697.97;;;28.32;40.59
62548;BME280;48602;45.192;5.722;2023-07-20T13:00:20;98701.31;;;28.34;39.90
62548;BME280;48602;45.192;5.722;2023-07-20T13:02:48;98707.50;;;28.42;39.97
62548;BME280;48602;45.192;5.722;2023-07-20T13:05:14;98699.69;;;28.47;39.89
62548;BME280;48602;45.192;5.722;2023-07-20T13:07:41;98689.94;;;28.53;39.64
62548;BME280;48602;45.192;5.722;2023-07-20T13:10:07;98698.53;;;28.57;39.69
62548;BME280;48602;45.192;5.722;2023-07-20T13:12:33;98690.22;;;28.58;39.49
62548;BME280;48602;45.192;5.722;2023-07-20T13:15:01;98714.09;;;28.63;39.46
62548;BME280;48602;45.192;5.722;2023-07-20T13:17:27;98707.16;;;28.60;39.23
62548;BME280;48602;45.192;5.722;2023-07-20T13:19:53;98692.09;;;28.58;39.05